createdAt,value
2019-04-20T00:01:19.925Z,5.63
2019-04-20T00:03:48.447Z,5.83
2019-04-20T00:06:21.501Z,6.17
2019-04-20T00:08:59.937Z,5.93
2019-04-20T00:11:36.439Z,5.50
2019-04-20T00:14:07.072Z,5.80
2019-04-20T00:16:35.766Z,5.27
2019-04-20T00:19:09.309Z,5.73
2019-04-20T00:21:52.046Z,5.60
2019-04-20T00:24:35.918Z,6.37
2019-04-20T00:27:31.327Z,6.10
2019-04-20T00:30:03.346Z,6.00
2019-04-20T00:32:30.009Z,6.00
2019-04-20T00:34:52.014Z,6.10
2019-04-20T00:37:23.703Z,5.70
2019-04-20T00:39:56.494Z,5.63
2019-04-20T00:42:36.597Z,5.80
2019-04-20T00:45:12.035Z,5.50
2019-04-20T00:47:47.817Z,5.67
2019-04-20T00:50:29.932Z,5.87
2019-04-20T00:53:00.632Z,6.20
2019-04-20T00:55:20.978Z,6.10
2019-04-20T00:57:59.510Z,7.60
2019-04-20T01:00:41.046Z,7.47
2019-04-20T01:03:14.348Z,5.47
2019-04-20T01:06:05.356Z,5.77
2019-04-20T01:08:17.151Z,5.47
2019-04-20T01:10:51.452Z,5.00
2019-04-20T01:13:23.875Z,5.83
2019-04-20T01:16:03.295Z,6.03
2019-04-20T01:18:30.304Z,5.57
2019-04-20T01:21:06.793Z,6.03
2019-04-20T01:23:43.817Z,5.47
2019-04-20T01:26:14.468Z,6.03
2019-04-20T01:28:57.640Z,6.00
2019-04-20T01:31:27.289Z,5.40
2019-04-20T01:34:01.830Z,5.90
2019-04-20T01:36:42.988Z,5.00
2019-04-20T01:39:12.429Z,5.63
2019-04-20T01:41:32.960Z,5.10
2019-04-20T01:44:05.147Z,5.70
2019-04-20T01:46:39.152Z,5.87
2019-04-20T01:49:15.672Z,5.40
2019-04-20T01:51:52.464Z,5.50
2019-04-20T01:54:34.053Z,5.43
2019-04-20T01:57:04.659Z,5.83
2019-04-20T01:59:44.820Z,5.77
2019-04-20T02:02:19.557Z,5.60
2019-04-20T02:04:53.740Z,5.60
2019-04-20T02:07:33.575Z,6.13
2019-04-20T02:10:03.612Z,5.80
2019-04-20T02:12:37.275Z,5.47
2019-04-20T02:15:20.072Z,5.10
2019-04-20T02:17:53.728Z,4.90
2019-04-20T02:20:37.521Z,5.27
2019-04-20T02:23:06.274Z,5.43
2019-04-20T02:25:24.975Z,6.63
2019-04-20T02:28:14.673Z,5.50
2019-04-20T02:31:06.440Z,5.33
2019-04-20T02:33:58.006Z,5.70
2019-04-20T02:36:47.860Z,6.07
2019-04-20T02:41:51.429Z,5.63
2019-04-20T02:44:36.165Z,5.50
2019-04-20T02:47:13.989Z,5.90
2019-04-20T02:49:37.657Z,5.50
2019-04-20T02:52:12.402Z,5.90
2019-04-20T02:54:38.909Z,5.67
2019-04-20T02:57:33.489Z,5.67
2019-04-20T03:00:01.125Z,6.33
2019-04-20T03:02:13.025Z,5.37
2019-04-20T03:04:35.072Z,6.33
2019-04-20T03:07:15.245Z,5.80
2019-04-20T03:09:50.512Z,6.20
2019-04-20T03:12:33.397Z,6.33
2019-04-20T03:14:55.252Z,6.77
2019-04-20T03:17:39.065Z,6.93
2019-04-20T03:20:03.272Z,7.37
2019-04-20T03:23:05.189Z,6.07
2019-04-20T03:25:23.808Z,5.87
2019-04-20T03:27:51.665Z,7.17
2019-04-20T03:31:15.713Z,6.57
2019-04-20T03:35:41.823Z,6.87
2019-04-20T03:38:14.231Z,7.00
2019-04-20T03:40:40.159Z,6.30
2019-04-20T03:43:03.825Z,6.37
2019-04-20T03:45:44.582Z,6.83
2019-04-20T03:48:29.516Z,7.53
2019-04-20T03:51:02.094Z,7.20
2019-04-20T03:53:55.467Z,8.37
2019-04-20T03:56:46.348Z,8.27
2019-04-20T03:59:33.225Z,8.27
2019-04-20T04:02:22.191Z,8.60
2019-04-20T04:04:59.004Z,9.10
2019-04-20T04:07:24.853Z,10.00
2019-04-20T04:10:08.554Z,9.60
2019-04-20T04:13:07.266Z,8.90
2019-04-20T04:15:48.287Z,8.90
2019-04-20T04:18:26.074Z,8.67
2019-04-20T04:21:01.416Z,10.47
2019-04-20T04:23:44.757Z,9.67
2019-04-20T04:26:17.495Z,11.30
2019-04-20T04:28:48.934Z,11.80
2019-04-20T04:31:29.388Z,11.13
2019-04-20T04:34:06.222Z,10.30
2019-04-20T04:36:37.603Z,11.13
2019-04-20T04:39:15.257Z,10.70
2019-04-20T04:41:45.554Z,11.33
2019-04-20T04:44:12.347Z,11.57
2019-04-20T04:46:33.885Z,12.60
2019-04-20T04:49:18.059Z,11.37
2019-04-20T04:51:49.173Z,13.13
2019-04-20T04:54:24.686Z,11.67
2019-04-20T04:56:48.397Z,12.93
2019-04-20T04:59:21.425Z,11.53
2019-04-20T05:01:56.809Z,12.70
2019-04-20T05:05:05.209Z,13.97
2019-04-20T05:07:42.687Z,14.00
2019-04-20T05:10:01.260Z,13.87
2019-04-20T05:12:35.908Z,14.33
2019-04-20T05:15:15.989Z,14.50
2019-04-20T05:18:01.539Z,14.53
2019-04-20T05:20:47.533Z,12.87
2019-04-20T05:23:16.304Z,14.37
2019-04-20T05:26:03.522Z,13.70
2019-04-20T05:28:32.316Z,13.87
2019-04-20T05:30:59.205Z,14.90
2019-04-20T05:33:42.324Z,14.17
2019-04-20T05:36:18.924Z,15.97
2019-04-20T05:38:55.546Z,14.37
2019-04-20T05:41:21.855Z,15.53
2019-04-20T05:43:59.673Z,15.00
2019-04-20T05:46:38.045Z,15.13
2019-04-20T05:49:17.651Z,15.73
2019-04-20T05:51:47.760Z,15.53
2019-04-20T05:54:23.688Z,15.80
2019-04-20T05:56:56.279Z,15.07
2019-04-20T05:59:27.041Z,15.47
2019-04-20T06:02:03.632Z,15.27
2019-04-20T06:04:54.511Z,16.00
2019-04-20T06:07:15.546Z,15.63
2019-04-20T06:09:50.792Z,14.87
2019-04-20T06:12:20.038Z,16.80
2019-04-20T06:14:57.185Z,16.57
2019-04-20T06:17:49.402Z,16.07
2019-04-20T06:20:31.220Z,16.20
2019-04-20T06:23:11.844Z,15.40
2019-04-20T06:25:54.245Z,15.70
2019-04-20T06:28:14.902Z,15.83
2019-04-20T06:30:45.534Z,14.63
2019-04-20T06:39:50.649Z,14.23
2019-04-20T06:42:12.031Z,15.10
2019-04-20T06:44:53.623Z,13.80
2019-04-20T06:47:17.652Z,13.13
2019-04-20T06:50:01.277Z,13.40
2019-04-20T06:52:27.698Z,13.13
2019-04-20T06:55:05.573Z,12.93
2019-04-20T06:57:45.090Z,12.70
2019-04-20T07:00:18.051Z,12.97
2019-04-20T07:02:50.726Z,12.03
2019-04-20T07:05:26.106Z,11.63
2019-04-20T07:08:36.053Z,11.23
2019-04-20T07:10:38.038Z,10.33
2019-04-20T07:13:02.669Z,9.47
2019-04-20T07:15:36.571Z,8.27
2019-04-20T07:18:16.696Z,8.40
2019-04-20T07:21:00.599Z,8.17
2019-04-20T07:23:56.089Z,6.83
2019-04-20T07:26:21.051Z,6.27
2019-04-20T07:28:49.953Z,6.30
2019-04-20T07:31:15.256Z,5.47
2019-04-20T07:33:54.845Z,5.43
2019-04-20T07:36:24.408Z,5.60
2019-04-20T07:39:00.682Z,4.90
2019-04-20T07:41:42.912Z,4.43
2019-04-20T07:46:47.068Z,3.80
2019-04-20T07:49:15.760Z,3.60
2019-04-20T07:51:31.541Z,4.17
2019-04-20T07:54:24.716Z,4.30
2019-04-20T07:56:53.693Z,4.07
2019-04-20T07:59:17.823Z,4.33
2019-04-20T08:02:28.982Z,5.00
2019-04-20T08:04:47.569Z,4.63
2019-04-20T08:07:07.774Z,4.90
2019-04-20T08:09:47.841Z,4.17
2019-04-20T08:12:51.633Z,5.07
2019-04-20T08:15:30.061Z,3.47
2019-04-20T08:17:56.443Z,3.13
2019-04-20T08:20:29.917Z,3.50
2019-04-20T08:23:07.142Z,3.87
2019-04-20T08:25:33.125Z,3.30
2019-04-20T08:27:57.084Z,3.13
2019-04-20T08:31:06.582Z,3.00
2019-04-20T08:33:59.501Z,3.60
2019-04-20T08:36:27.405Z,2.90
2019-04-20T08:39:24.459Z,3.07
2019-04-20T08:41:24.918Z,2.47
2019-04-20T08:44:11.140Z,2.70
2019-04-20T08:46:47.219Z,2.90
2019-04-20T08:49:17.176Z,3.03
2019-04-20T08:51:49.785Z,2.73
2019-04-20T08:54:20.708Z,2.80
2019-04-20T08:56:42.413Z,3.00
2019-04-20T08:59:06.819Z,3.27
2019-04-20T09:01:40.520Z,2.80
2019-04-20T09:04:19.695Z,2.63
2019-04-20T09:07:01.738Z,2.70
2019-04-20T09:09:54.790Z,3.13
2019-04-20T09:12:11.881Z,2.80
2019-04-20T09:14:28.684Z,2.80
2019-04-20T09:17:08.106Z,3.10
2019-04-20T09:19:47.973Z,3.17
2019-04-20T09:22:40.960Z,2.90
2019-04-20T09:25:44.428Z,3.10
2019-04-20T09:28:08.418Z,3.00
2019-04-20T09:30:45.500Z,2.93
2019-04-20T09:33:44.031Z,2.93
2019-04-20T09:36:14.106Z,3.43
2019-04-20T09:39:06.149Z,3.50
2019-04-20T09:42:00.032Z,2.97
2019-04-20T09:44:25.650Z,3.40
2019-04-20T09:46:57.821Z,3.70
2019-04-20T09:49:40.298Z,3.80
2019-04-20T09:52:13.314Z,3.90
2019-04-20T09:54:52.837Z,4.40
2019-04-20T09:57:32.249Z,4.00
2019-04-20T10:00:01.732Z,3.90
2019-04-20T10:02:23.328Z,4.37
2019-04-20T10:04:51.213Z,4.20
2019-04-20T10:07:26.227Z,4.50
2019-04-20T10:09:57.889Z,3.70
2019-04-20T10:12:31.285Z,4.23
2019-04-20T10:15:12.381Z,3.80
2019-04-20T10:17:38.626Z,4.17
2019-04-20T10:20:19.433Z,3.70
2019-04-20T10:22:44.794Z,3.50
2019-04-20T10:25:18.212Z,4.00
2019-04-20T10:27:51.540Z,3.83
2019-04-20T10:30:23.722Z,3.50
2019-04-20T10:32:55.846Z,3.30
2019-04-20T10:35:29.669Z,4.20
2019-04-20T10:38:03.471Z,3.70
2019-04-20T10:40:46.383Z,3.60
2019-04-20T10:43:10.171Z,3.53
2019-04-20T10:45:42.680Z,3.90
2019-04-20T10:48:15.121Z,3.93
2019-04-20T10:50:47.750Z,3.73
2019-04-20T10:53:19.765Z,4.10
2019-04-20T10:55:51.774Z,4.53
2019-04-20T10:58:25.230Z,4.00
2019-04-20T11:00:57.686Z,4.13
2019-04-20T11:03:29.760Z,4.17
2019-04-20T11:06:02.785Z,4.20
2019-04-20T11:08:34.950Z,4.50
2019-04-20T11:11:14.922Z,3.73
2019-04-20T11:13:41.602Z,3.87
2019-04-20T11:16:14.741Z,3.87
2019-04-20T11:18:47.328Z,3.73
2019-04-20T11:21:19.665Z,3.83
2019-04-20T11:23:52.141Z,3.87
2019-04-20T11:26:24.417Z,3.93
2019-04-20T11:28:57.987Z,3.80
2019-04-20T11:31:37.329Z,3.67
2019-04-20T11:34:04.239Z,4.07
2019-04-20T11:36:37.120Z,3.73
2019-04-20T11:39:11.542Z,3.83
2019-04-20T11:41:43.762Z,3.60
2019-04-20T11:44:15.907Z,3.73
2019-04-20T11:46:48.340Z,3.50
2019-04-20T11:49:21.625Z,3.97
2019-04-20T11:51:55.348Z,3.47
2019-04-20T11:54:28.314Z,3.43
2019-04-20T11:57:01.600Z,3.60
2019-04-20T11:59:35.149Z,3.77
2019-04-20T12:02:21.481Z,3.10
2019-04-20T12:04:59.751Z,3.03
2019-04-20T12:07:24.772Z,3.60
2019-04-20T12:09:58.512Z,3.47
2019-04-20T12:12:40.075Z,3.50
2019-04-20T12:15:06.891Z,3.47
2019-04-20T12:17:39.768Z,3.57
2019-04-20T12:20:12.833Z,2.87
2019-04-20T12:22:46.199Z,3.60
2019-04-20T12:25:18.665Z,3.23
2019-04-20T12:27:54.036Z,3.53
2019-04-20T12:30:25.894Z,3.20
2019-04-20T12:33:01.937Z,3.83
2019-04-20T12:35:32.061Z,3.43
2019-04-20T12:38:05.220Z,3.33
2019-04-20T12:40:38.003Z,3.10
2019-04-20T12:43:11.092Z,3.87
2019-04-20T12:45:44.128Z,4.10
2019-04-20T12:48:17.519Z,3.70
2019-04-20T12:50:49.951Z,3.57
2019-04-20T12:53:22.351Z,4.23
2019-04-20T12:55:54.840Z,3.50
2019-04-20T12:58:28.442Z,3.17
2019-04-20T13:01:00.618Z,3.10
2019-04-20T13:03:32.870Z,3.60
2019-04-20T13:06:05.895Z,3.60
2019-04-20T13:08:43.603Z,3.30
2019-04-20T13:11:14.473Z,3.50
2019-04-20T13:13:54.470Z,4.10
2019-04-20T13:16:28.223Z,3.00
2019-04-20T13:19:03.382Z,3.67
2019-04-20T13:21:36.819Z,3.23
2019-04-20T13:24:09.324Z,3.13
2019-04-20T13:26:42.774Z,3.40
2019-04-20T13:29:15.033Z,3.90
2019-04-20T13:31:48.775Z,3.67
2019-04-20T13:34:22.185Z,4.43
2019-04-20T13:36:54.332Z,3.77
2019-04-20T13:39:26.864Z,3.47
2019-04-20T13:42:08.700Z,4.20
2019-04-20T13:44:32.722Z,3.40
2019-04-20T13:47:05.139Z,3.77
2019-04-20T13:49:37.252Z,4.10
2019-04-20T13:52:09.288Z,3.83
2019-04-20T13:54:42.082Z,4.07
2019-04-20T13:57:17.784Z,4.23
2019-04-20T14:00:00.196Z,4.10
2019-04-20T14:02:40.696Z,4.40
2019-04-20T14:05:12.961Z,4.23
2019-04-20T14:07:47.224Z,4.77
2019-04-20T14:10:19.651Z,4.27
2019-04-20T14:13:00.900Z,4.20
2019-04-20T14:15:26.931Z,4.27
2019-04-20T14:17:59.349Z,3.70
2019-04-20T14:20:31.969Z,3.43
2019-04-20T14:23:05.255Z,4.00
2019-04-20T14:25:51.088Z,4.10
2019-04-20T14:28:23.350Z,4.30
2019-04-20T14:30:56.085Z,4.70
2019-04-20T14:33:30.739Z,3.77
2019-04-20T14:36:03.244Z,4.10
2019-04-20T14:38:36.170Z,4.20
2019-04-20T14:41:08.612Z,3.90
2019-04-20T14:43:40.686Z,4.10
2019-04-20T14:46:12.747Z,3.63
2019-04-20T14:48:44.962Z,3.77
2019-04-20T14:51:17.359Z,3.93
2019-04-20T14:53:49.512Z,4.90
2019-04-20T14:56:21.591Z,4.07
2019-04-20T14:58:55.578Z,4.40
2019-04-20T15:01:38.708Z,4.40
2019-04-20T15:04:16.370Z,4.13
2019-04-20T15:06:44.730Z,3.97
2019-04-20T15:09:16.952Z,3.83
2019-04-20T15:11:48.947Z,4.60
2019-04-20T15:14:20.964Z,4.60
2019-04-20T15:16:52.967Z,4.30
2019-04-20T15:19:29.677Z,3.97
2019-04-20T15:22:07.409Z,4.10
2019-04-20T15:24:39.835Z,4.20
2019-04-20T15:27:12.248Z,4.80
2019-04-20T15:29:44.577Z,3.37
2019-04-20T15:32:16.755Z,3.80
2019-04-20T15:34:50.872Z,3.87
2019-04-20T15:37:23.409Z,3.97
2019-04-20T15:39:57.012Z,3.73
2019-04-20T15:42:29.581Z,3.10
2019-04-20T15:45:03.404Z,2.60
2019-04-20T15:47:36.148Z,2.30
2019-04-20T15:50:09.648Z,2.07
2019-04-20T15:52:45.635Z,2.73
2019-04-20T15:55:24.068Z,2.80
2019-04-20T15:57:50.435Z,2.53
2019-04-20T16:00:24.577Z,1.70
2019-04-20T16:02:59.107Z,2.00
2019-04-20T16:05:43.014Z,1.77
2019-04-20T16:08:30.242Z,1.60
2019-04-20T16:11:04.587Z,1.57
2019-04-20T16:13:40.321Z,2.00
2019-04-20T16:16:12.096Z,1.57
2019-04-20T16:18:45.237Z,2.73
2019-04-20T16:21:22.958Z,2.47
2019-04-20T16:24:00.987Z,1.60
2019-04-20T16:26:35.735Z,1.90
2019-04-20T16:29:11.543Z,1.53
2019-04-20T16:31:47.206Z,1.80
2019-04-20T16:34:19.246Z,2.10
2019-04-20T16:36:54.697Z,2.73
2019-04-20T16:39:25.718Z,4.17
2019-04-20T16:41:58.316Z,2.57
2019-04-20T16:44:31.401Z,1.90
2019-04-20T16:47:04.094Z,2.07
2019-04-20T16:49:37.097Z,2.33
2019-04-20T16:52:10.333Z,2.30
2019-04-20T16:54:43.756Z,3.07
2019-04-20T16:57:17.239Z,6.13
2019-04-20T16:59:54.083Z,2.37
2019-04-20T17:02:24.521Z,2.33
2019-04-20T17:04:58.895Z,3.33
2019-04-20T17:07:33.212Z,4.10
2019-04-20T17:10:09.654Z,2.10
2019-04-20T17:12:42.010Z,2.27
2019-04-20T17:15:15.894Z,2.30
2019-04-20T17:17:50.247Z,2.17
2019-04-20T17:20:24.909Z,5.43
2019-04-20T17:22:56.205Z,2.60
2019-04-20T17:25:28.490Z,2.10
2019-04-20T17:28:07.144Z,2.57
2019-04-20T17:31:00.899Z,2.33
2019-04-20T17:33:58.421Z,2.43
2019-04-20T17:36:25.168Z,3.13
2019-04-20T17:38:59.363Z,2.60
2019-04-20T17:41:52.941Z,4.33
2019-04-20T17:44:20.916Z,4.13
2019-04-20T17:46:50.379Z,2.37
2019-04-20T17:49:28.276Z,2.70
2019-04-20T17:52:05.114Z,3.00
2019-04-20T17:54:19.830Z,2.77
2019-04-20T17:56:52.515Z,2.80
2019-04-20T17:59:24.509Z,3.17
2019-04-20T18:02:20.268Z,3.00
2019-04-20T18:05:22.038Z,3.57
2019-04-20T18:07:52.323Z,3.83
2019-04-20T18:10:17.173Z,3.70
2019-04-20T18:12:42.371Z,3.77
2019-04-20T18:15:28.113Z,3.53
2019-04-20T18:18:04.861Z,3.73
2019-04-20T18:20:42.982Z,3.77
2019-04-20T18:23:16.378Z,3.80
2019-04-20T18:26:17.249Z,3.40
2019-04-20T18:28:40.037Z,3.80
2019-04-20T18:31:15.368Z,3.70
2019-04-20T18:33:48.587Z,4.03
2019-04-20T18:36:30.626Z,3.80
2019-04-20T18:39:00.642Z,4.63
2019-04-20T18:41:37.527Z,5.37
2019-04-20T18:44:02.877Z,4.47
2019-04-20T18:47:03.514Z,4.80
2019-04-20T18:49:24.046Z,4.77
2019-04-20T18:51:43.959Z,5.03
2019-04-20T18:54:22.028Z,4.73
2019-04-20T18:56:52.609Z,4.77
2019-04-20T18:59:35.440Z,4.90
2019-04-20T19:01:59.260Z,5.07
2019-04-20T19:04:33.110Z,5.20
2019-04-20T19:07:06.223Z,5.00
2019-04-20T19:09:39.485Z,5.47
2019-04-20T19:12:14.594Z,5.80
2019-04-20T19:15:27.923Z,5.77
2019-04-20T19:18:00.885Z,5.03
2019-04-20T19:20:24.772Z,5.60
2019-04-20T19:22:55.947Z,5.33
2019-04-20T19:25:31.634Z,5.90
2019-04-20T19:28:04.696Z,5.90
2019-04-20T19:30:46.147Z,5.13
2019-04-20T19:33:28.667Z,5.90
2019-04-20T19:35:53.013Z,5.97
2019-04-20T19:38:22.621Z,6.07
2019-04-20T19:41:01.959Z,6.80
2019-04-20T19:43:33.781Z,7.50
2019-04-20T19:48:46.165Z,7.30
2019-04-20T19:51:31.020Z,7.30
2019-04-20T19:54:02.764Z,6.73
2019-04-20T19:56:32.385Z,7.63
2019-04-20T19:59:03.014Z,7.57
2019-04-20T20:01:24.002Z,7.17
2019-04-20T20:04:02.176Z,8.73
2019-04-20T20:06:40.076Z,8.83
2019-04-20T20:09:09.499Z,8.80
2019-04-20T20:11:42.979Z,8.60
2019-04-20T20:14:17.948Z,9.20
2019-04-20T20:17:02.728Z,10.03
2019-04-20T20:19:38.535Z,11.27
2019-04-20T20:22:09.227Z,10.80
2019-04-20T20:24:31.382Z,9.97
2019-04-20T20:27:07.610Z,10.00
2019-04-20T20:29:46.660Z,10.17
2019-04-20T20:32:21.443Z,10.70
2019-04-20T20:34:56.150Z,10.83
2019-04-20T20:37:35.872Z,10.73
2019-04-20T20:40:08.943Z,11.60
2019-04-20T20:42:47.345Z,12.63
2019-04-20T20:45:19.033Z,11.90
2019-04-20T20:47:55.348Z,11.37
2019-04-20T20:50:33.586Z,11.03
2019-04-20T20:52:58.672Z,10.47
2019-04-20T20:55:29.476Z,10.77
2019-04-20T20:57:59.268Z,11.03
2019-04-20T21:00:41.896Z,10.30
2019-04-20T21:03:05.485Z,11.13
2019-04-20T21:05:37.427Z,10.43
2019-04-20T21:08:11.125Z,11.93
2019-04-20T21:10:45.815Z,11.83
2019-04-20T21:13:19.185Z,12.03
2019-04-20T21:16:00.217Z,11.90
2019-04-20T21:18:43.662Z,12.97
2019-04-20T21:21:17.200Z,12.53
2019-04-20T21:23:45.480Z,13.33
2019-04-20T21:26:12.751Z,13.47
2019-04-20T21:28:42.253Z,13.30
2019-04-20T21:31:24.392Z,13.07
2019-04-20T21:33:53.590Z,13.17
2019-04-20T21:36:29.967Z,12.80
2019-04-20T21:39:01.523Z,12.57
2019-04-20T21:41:33.983Z,12.67
2019-04-20T21:44:13.008Z,12.47
2019-04-20T21:46:47.368Z,13.20
2019-04-20T21:49:31.150Z,13.27
2019-04-20T21:51:58.410Z,12.13
2019-04-20T21:54:25.461Z,13.23
2019-04-20T21:57:03.131Z,12.57
2019-04-20T21:59:38.684Z,12.43
2019-04-20T22:02:15.285Z,12.30
2019-04-20T22:04:41.038Z,12.63
2019-04-20T22:07:14.403Z,12.30
2019-04-20T22:09:52.783Z,11.60
2019-04-20T22:12:23.479Z,13.80
2019-04-20T22:15:02.885Z,12.93
2019-04-20T22:17:33.156Z,12.20
2019-04-20T22:20:19.148Z,12.73
2019-04-20T22:22:57.249Z,11.90
2019-04-20T22:25:36.257Z,11.53
2019-04-20T22:27:48.475Z,12.57
2019-04-20T22:30:22.078Z,13.17
2019-04-20T22:32:56.942Z,14.57
2019-04-20T22:35:31.177Z,15.17
2019-04-20T22:38:10.920Z,15.40
2019-04-20T22:40:44.702Z,15.57
2019-04-20T22:43:25.577Z,15.40
2019-04-20T22:45:53.920Z,14.60
2019-04-20T22:48:25.432Z,15.43
2019-04-20T22:51:15.264Z,13.73
2019-04-20T22:53:45.119Z,14.40
2019-04-20T22:56:25.652Z,13.70
2019-04-20T22:58:51.805Z,14.23
2019-04-20T23:01:27.056Z,13.57
2019-04-20T23:03:48.798Z,14.27
2019-04-20T23:06:25.284Z,14.57
2019-04-20T23:08:59.566Z,14.13
2019-04-20T23:11:31.872Z,13.70
2019-04-20T23:14:02.861Z,14.20
2019-04-20T23:16:43.209Z,13.60
2019-04-20T23:19:10.316Z,13.63
2019-04-20T23:21:48.736Z,14.50
2019-04-20T23:24:18.455Z,14.87
2019-04-20T23:26:50.926Z,14.60
2019-04-20T23:29:27.254Z,16.97
2019-04-20T23:32:04.075Z,17.77
2019-04-20T23:34:33.902Z,16.93
2019-04-20T23:37:08.756Z,16.23
2019-04-20T23:39:41.586Z,16.87
2019-04-20T23:42:16.118Z,15.97
2019-04-20T23:45:00.381Z,15.83
2019-04-20T23:47:47.888Z,16.10
2019-04-20T23:50:35.678Z,16.03
2019-04-20T23:53:10.424Z,16.93
2019-04-20T23:55:23.618Z,17.67
2019-04-20T23:57:59.528Z,16.73
